Time;durP1;ratioP1;P1;durP2;ratioP2;P2;SDS_P1;SDS_P2;PMS_P1;PMS_P2;Temp;Humidity;BMP_temperature;BMP_pressure;BME280_temperature;BME280_humidity;BME280_pressure;Samples;Min_cycle;Max_cycle;Signal;HPM_P1;HPM_P2
2022/12/11 00:01:19;;;;;;;17.88;12.80;;;;;;;-3.45;87.49;100589.66;7397264;19;20010;-70
2022/12/11 00:03:47;;;;;;;18.92;12.60;;;;;;;-3.43;87.88;100589.72;7397312;19;20458;-71
2022/12/11 00:06:19;;;;;;;22.45;13.93;;;;;;;-3.40;88.79;100584.66;7394692;19;20372;-72
2022/12/11 00:08:48;;;;;;;18.20;13.13;;;;;;;-3.36;87.85;100588.22;7397334;19;20018;-70
2022/12/11 00:11:18;;;;;;;21.27;13.88;;;;;;;-3.39;85.91;100588.97;7396368;19;20015;-71
2022/12/11 00:13:46;;;;;;;20.15;12.85;;;;;;;-3.44;86.22;100583.72;7395867;19;20070;-70
2022/12/11 00:16:17;;;;;;;16.88;12.35;;;;;;;-3.47;86.10;100581.03;7395918;19;20035;-70
2022/12/11 00:18:46;;;;;;;19.17;13.05;;;;;;;-3.49;86.63;100580.13;7396867;19;20019;-70
2022/12/11 00:21:16;;;;;;;19.63;12.93;;;;;;;-3.50;86.25;100587.75;7396639;19;20022;-71
2022/12/11 00:23:44;;;;;;;16.35;12.38;;;;;;;-3.52;86.50;100587.72;7394564;19;20018;-70
2022/12/11 00:26:15;;;;;;;17.83;12.13;;;;;;;-3.51;87.59;100586.91;7395600;19;20015;-70
2022/12/11 00:28:45;;;;;;;18.58;12.35;;;;;;;-3.50;87.83;100580.94;7396450;19;20019;-70
2022/12/11 00:31:19;;;;;;;21.50;13.13;;;;;;;-3.47;87.37;100585.31;7394745;19;20039;-70
2022/12/11 00:33:48;;;;;;;17.60;11.77;;;;;;;-3.46;86.67;100575.09;7395784;19;20031;-70
2022/12/11 00:36:19;;;;;;;15.25;11.35;;;;;;;-3.48;86.67;100581.84;7394904;19;20021;-70
2022/12/11 00:38:47;;;;;;;19.42;11.95;;;;;;;-3.51;85.88;100579.19;7396611;19;20060;-71
2022/12/11 00:41:16;;;;;;;16.40;10.98;;;;;;;-3.52;86.77;100574.03;7396051;19;20031;-71
2022/12/11 00:43:45;;;;;;;17.70;12.07;;;;;;;-3.59;85.84;100565.25;7395948;19;20014;-71
2022/12/11 00:46:14;;;;;;;16.20;11.80;;;;;;;-3.55;87.32;100571.34;7394984;19;20015;-72
2022/12/11 00:48:47;;;;;;;18.25;11.25;;;;;;;-3.60;84.08;100577.19;7394833;19;20006;-71
2022/12/11 00:51:15;;;;;;;14.48;10.80;;;;;;;-3.62;85.71;100570.28;7394022;19;20021;-71
2022/12/11 00:53:44;;;;;;;17.55;10.38;;;;;;;-3.68;83.64;100572.63;7394914;19;20018;-71
2022/12/11 00:56:15;;;;;;;19.65;11.82;;;;;;;-3.64;86.20;100582.16;7394906;19;20039;-72
2022/12/11 00:58:43;;;;;;;18.85;11.00;;;;;;;-3.63;86.53;100589.03;7395325;19;20010;-71
2022/12/11 01:01:14;;;;;;;14.75;10.18;;;;;;;-3.61;87.63;100582.28;7395387;19;20018;-71
2022/12/11 01:03:45;;;;;;;16.67;10.80;;;;;;;-3.64;87.34;100565.09;7395647;19;20070;-71
2022/12/11 01:06:16;;;;;;;15.07;11.15;;;;;;;-3.58;86.28;100576.38;7395157;19;20027;-71
2022/12/11 01:08:46;;;;;;;16.73;11.05;;;;;;;-3.60;85.03;100579.78;7402701;19;20018;-71
2022/12/11 01:11:14;;;;;;;14.88;10.23;;;;;;;-3.62;86.31;100576.28;7402841;19;20022;-71
2022/12/11 01:13:44;;;;;;;16.95;10.65;;;;;;;-3.63;85.28;100574.56;7401659;19;20053;-71
2022/12/11 01:16:14;;;;;;;16.65;10.10;;;;;;;-3.63;85.51;100573.66;7401132;19;20596;-71
2022/12/11 01:18:46;;;;;;;15.82;10.57;;;;;;;-3.64;85.90;100579.59;7403064;19;20023;-72
2022/12/11 01:21:15;;;;;;;14.20;10.38;;;;;;;-3.64;84.98;100590.75;7402667;19;20023;-70
2022/12/11 01:23:44;;;;;;;16.98;10.25;;;;;;;-3.63;85.97;100577.13;7402453;19;20022;-71
2022/12/11 01:26:14;;;;;;;17.63;11.18;;;;;;;-3.62;86.70;100578.84;7399443;19;20077;-71
2022/12/11 01:28:44;;;;;;;14.00;9.82;;;;;;;-3.58;87.53;100581.53;7402027;19;20018;-71
2022/12/11 01:31:15;;;;;;;16.20;10.80;;;;;;;-3.56;87.95;100582.41;7399362;19;20082;-71
2022/12/11 01:33:46;;;;;;;16.42;10.75;;;;;;;-3.54;88.02;100584.22;7401640;19;20105;-71
2022/12/11 01:36:17;;;;;;;18.30;11.38;;;;;;;-3.51;88.07;100581.75;7401042;19;20026;-70
2022/12/11 01:38:46;;;;;;;16.90;11.57;;;;;;;-3.56;87.10;100564.47;7402388;19;20042;-71
2022/12/11 01:41:15;;;;;;;16.98;10.80;;;;;;;-3.53;87.51;100562.88;7401586;19;20481;-71
2022/12/11 01:44:05;;;;;;;18.70;12.18;;;;;;;-3.52;86.35;100571.47;7401740;19;20014;-71
2022/12/11 01:46:36;;;;;;;16.55;11.38;;;;;;;-3.55;85.58;100582.50;7399753;19;20014;-71
2022/12/11 01:49:10;;;;;;;17.52;11.82;;;;;;;-3.59;85.34;100575.50;7398276;19;20477;-71
2022/12/11 01:51:44;;;;;;;18.10;12.10;;;;;;;-3.63;85.71;100573.66;7401987;19;20094;-71
2022/12/11 01:54:15;;;;;;;17.90;11.82;;;;;;;-3.62;86.70;100576.28;7400414;19;20011;-71
2022/12/11 01:56:46;;;;;;;16.90;11.40;;;;;;;-3.62;86.70;100570.28;7399891;19;20074;-71
2022/12/11 01:59:17;;;;;;;18.05;12.00;;;;;;;-3.62;86.27;100571.13;7401808;19;20031;-71
2022/12/11 02:01:50;;;;;;;20.88;12.60;;;;;;;-3.61;85.49;100572.03;7401146;19;20336;-71
2022/12/11 02:04:22;;;;;;;18.70;12.95;;;;;;;-3.62;86.27;100572.84;7399047;19;20439;-71
2022/12/11 02:06:52;;;;;;;20.27;11.68;;;;;;;-3.62;86.02;100570.28;7399443;19;20040;-71
2022/12/11 02:09:23;;;;;;;21.23;12.82;;;;;;;-3.63;85.26;100576.22;7401323;19;20011;-71
2022/12/11 02:12:01;;;;;;;17.98;12.95;;;;;;;-3.65;85.50;100575.28;7401252;19;20018;-70
2022/12/11 02:14:35;;;;;;;19.90;12.20;;;;;;;-3.67;85.58;100569.25;7399264;19;20035;-69
2022/12/11 02:17:08;;;;;;;19.67;13.25;;;;;;;-3.70;86.30;100569.13;7398158;19;20015;-69
2022/12/11 02:19:59;;;;;;;18.35;11.98;;;;;;;-3.65;86.43;100570.16;7399310;19;20023;-67
2022/12/11 02:22:45;;;;;;;18.55;11.90;;;;;;;-3.65;86.66;100575.28;7400170;19;20114;-67
2022/12/11 02:25:22;;;;;;;20.00;12.20;;;;;;;-3.66;85.58;100579.56;7400071;19;20018;-68
2022/12/11 02:27:56;;;;;;;20.83;12.13;;;;;;;-3.64;86.23;100579.59;7400432;19;20031;-69
2022/12/11 02:30:28;;;;;;;17.42;12.20;;;;;;;-3.65;85.37;100573.63;7400809;19;20014;-68
2022/12/11 02:32:58;;;;;;;16.33;11.40;;;;;;;-3.66;86.27;100569.31;7400518;19;20015;-69
2022/12/11 02:35:33;;;;;;;19.50;11.93;;;;;;;-3.66;86.22;100568.44;7398143;19;20022;-68
2022/12/11 02:38:05;;;;;;;19.42;11.85;;;;;;;-3.65;86.23;100565.03;7400085;19;20363;-68
2022/12/11 02:40:38;;;;;;;20.95;12.07;;;;;;;-3.64;87.67;100569.34;7400528;19;20018;-68
2022/12/11 02:43:10;;;;;;;17.60;11.98;;;;;;;-3.63;87.85;100576.22;7400384;19;20019;-68
2022/12/11 02:45:43;;;;;;;17.05;12.23;;;;;;;-3.62;87.17;100571.13;7399631;19;20022;-68
2022/12/11 02:48:14;;;;;;;21.38;13.00;;;;;;;-3.58;87.90;100569.56;7399739;19;20031;-68
2022/12/11 02:50:48;;;;;;;18.38;11.68;;;;;;;-3.57;88.57;100570.44;7400063;19;20022;-68
2022/12/11 02:53:22;;;;;;;20.02;11.80;;;;;;;-3.56;88.64;100562.78;7400063;19;20022;-68
2022/12/11 02:55:57;;;;;;;20.67;13.13;;;;;;;-3.55;87.58;100567.09;7398600;19;20018;-68
2022/12/11 02:58:29;;;;;;;18.73;12.38;;;;;;;-3.55;88.18;100568.78;7399886;19;20461;-68
2022/12/11 03:01:01;;;;;;;20.05;12.65;;;;;;;-3.57;87.65;100562.75;7399325;19;20379;-68
2022/12/11 03:03:31;;;;;;;20.05;12.32;;;;;;;-3.58;87.01;100572.13;7398806;19;20010;-68
2022/12/11 03:05:59;;;;;;;18.95;13.18;;;;;;;-3.60;85.63;100558.41;7397961;19;20011;-68
2022/12/11 03:08:28;;;;;;;20.85;13.80;;;;;;;-3.63;86.24;100564.28;7398732;19;20367;-68
2022/12/11 03:10:57;;;;;;;21.42;13.10;;;;;;;-3.65;85.75;100567.59;7399062;19;20095;-68
2022/12/11 03:13:26;;;;;;;18.38;12.50;;;;;;;-3.66;86.55;100563.31;7396241;19;20015;-68
2022/12/11 03:16:11;;;;;;;18.33;12.60;;;;;;;-3.69;88.00;100563.19;7395976;19;20011;-68
2022/12/11 03:18:46;;;;;;;18.27;12.40;;;;;;;-3.66;88.27;100564.19;7399240;19;20031;-68
2022/12/11 03:21:19;;;;;;;19.95;13.52;;;;;;;-3.62;88.50;100566.00;7398369;19;20493;-68
2022/12/11 03:23:53;;;;;;;18.58;12.32;;;;;;;-3.59;87.59;100565.25;7398718;19;20018;-68
2022/12/11 03:26:22;;;;;;;23.90;14.70;;;;;;;-3.62;88.65;100555.75;7397722;19;20019;-68
2022/12/11 03:28:57;;;;;;;20.80;12.88;;;;;;;-3.54;88.09;100568.81;7398329;19;20028;-68
2022/12/11 03:31:33;;;;;;;23.42;13.18;;;;;;;-3.57;86.55;100563.59;7396713;19;20030;-68
2022/12/11 03:34:12;;;;;;;19.45;12.77;;;;;;;-3.59;86.41;100562.69;7397458;19;20481;-68
2022/12/11 03:36:41;;;;;;;21.40;14.13;;;;;;;-3.57;87.06;100565.31;7396536;19;20524;-68
2022/12/11 03:39:14;;;;;;;21.95;14.48;;;;;;;-3.58;88.34;100561.84;7397440;19;20011;-68
2022/12/11 03:41:46;;;;;;;20.60;13.70;;;;;;;-3.58;86.45;100561.84;7398186;19;20026;-68
2022/12/11 03:44:15;;;;;;;19.60;12.85;;;;;;;-3.58;87.53;100561.00;7397928;19;20490;-68
2022/12/11 03:46:48;;;;;;;20.48;13.60;;;;;;;-3.59;87.92;100560.09;7396462;19;20022;-68
2022/12/11 03:49:21;;;;;;;21.05;13.65;;;;;;;-3.58;87.93;100564.41;7395731;19;20011;-68
2022/12/11 03:51:53;;;;;;;22.25;13.68;;;;;;;-3.59;88.25;100557.53;7398062;19;20015;-69
2022/12/11 03:54:22;;;;;;;19.33;13.73;;;;;;;-3.55;88.32;100566.22;7397334;19;20024;-68
2022/12/11 03:56:55;;;;;;;20.75;14.38;;;;;;;-3.55;87.07;100569.66;7395601;19;20505;-69
2022/12/11 03:59:23;;;;;;;22.08;14.10;;;;;;;-3.54;87.72;100561.13;7395297;19;20018;-68
2022/12/11 04:01:54;;;;;;;22.02;13.73;;;;;;;-3.53;89.13;100560.31;7396752;19;20014;-68
2022/12/11 04:04:23;;;;;;;20.58;13.55;;;;;;;-3.51;88.33;100560.38;7397598;19;20031;-68
2022/12/11 04:06:51;;;;;;;21.73;13.30;;;;;;;-3.49;88.08;100556.16;7395977;19;20023;-68
2022/12/11 04:09:20;;;;;;;19.70;13.70;;;;;;;-3.52;87.51;100554.38;7396903;19;20023;-68
2022/12/11 04:11:48;;;;;;;21.42;14.02;;;;;;;-3.50;88.03;100554.41;7396848;19;20054;-68
2022/12/11 04:17:02;;;;;;;23.48;14.20;;;;;;;-3.48;89.00;100560.47;7396086;19;20096;-68
2022/12/11 04:24:55;;;;;;;25.13;15.07;;;;;;;-3.49;88.20;100569.00;7392860;19;20017;-68
2022/12/11 04:30:06;;;;;;;23.15;13.32;;;;;;;-3.49;89.48;100553.59;7396962;19;20391;-69
2022/12/11 04:32:37;;;;;;;27.63;16.30;;;;;;;-3.48;90.24;100563.03;7396393;19;20022;-69
2022/12/11 04:35:09;;;;;;;26.83;15.82;;;;;;;-3.45;90.19;100558.88;7395076;19;20035;-68
2022/12/11 04:37:37;;;;;;;21.45;14.40;;;;;;;-3.44;89.57;100546.91;7394618;19;20028;-68
2022/12/11 04:40:08;;;;;;;24.38;14.93;;;;;;;-3.43;89.77;100546.09;7396059;19;20023;-68
2022/12/11 04:42:36;;;;;;;19.98;13.52;;;;;;;-3.41;89.32;100553.84;7394679;19;20358;-68
2022/12/11 04:45:06;;;;;;;22.85;14.20;;;;;;;-3.42;88.56;100549.53;7395725;19;20028;-68
2022/12/11 04:47:39;;;;;;;22.17;14.02;;;;;;;-3.45;88.69;100558.88;7394125;19;20041;-68
2022/12/11 04:50:17;;;;;;;27.20;15.52;;;;;;;-3.51;86.13;100561.25;7394403;19;20094;-68
2022/12/11 04:52:45;;;;;;;25.52;16.55;;;;;;;-3.56;86.66;100556.78;7396003;19;20039;-69
2022/12/11 04:55:14;;;;;;;22.33;15.07;;;;;;;-3.60;87.32;100555.84;7393368;19;20018;-69
2022/12/11 04:57:43;;;;;;;21.33;14.00;;;;;;;-3.61;88.03;100559.22;7395261;19;20480;-69
2022/12/11 05:00:14;;;;;;;21.67;14.68;;;;;;;-3.64;87.09;100553.97;7395178;19;20442;-68
2022/12/11 05:02:45;;;;;;;24.17;14.85;;;;;;;-3.68;86.80;100552.97;7395927;19;20022;-69
2022/12/11 05:05:13;;;;;;;26.13;15.80;;;;;;;-3.69;87.55;100548.69;7395452;19;20043;-69
2022/12/11 05:07:42;;;;;;;26.63;13.68;;;;;;;-3.68;88.23;100544.44;7394951;19;20032;-68
2022/12/11 05:10:11;;;;;;;24.30;15.48;;;;;;;-3.67;87.95;100539.34;7396412;19;20015;-69
2022/12/11 05:12:40;;;;;;;22.20;14.68;;;;;;;-3.65;87.52;100547.09;7394730;19;20441;-69
2022/12/11 05:15:09;;;;;;;24.58;15.75;;;;;;;-3.63;89.65;100550.59;7392689;19;20513;-69
2022/12/11 05:17:38;;;;;;;21.98;14.52;;;;;;;-3.62;87.41;100549.78;7392660;19;20410;-69
2022/12/11 05:20:11;;;;;;;24.45;15.85;;;;;;;-3.63;88.45;100548.91;7394947;19;20031;-69
2022/12/11 05:22:40;;;;;;;26.33;16.45;;;;;;;-3.62;88.15;100550.63;7393214;19;20023;-69
2022/12/11 05:25:09;;;;;;;23.63;15.27;;;;;;;-3.65;86.46;100545.41;7394442;19;20018;-69
2022/12/11 05:27:38;;;;;;;24.33;15.40;;;;;;;-3.66;86.44;100542.81;7392803;19;20059;-68
2022/12/11 05:30:08;;;;;;;22.88;15.45;;;;;;;-3.66;88.89;100543.66;7394256;19;20054;-69
2022/12/11 05:32:37;;;;;;;26.40;14.88;;;;;;;-3.62;89.32;100534.38;7393153;19;20015;-69
2022/12/11 05:35:09;;;;;;;24.20;15.43;;;;;;;-3.61;87.98;100543.81;7393721;19;20074;-69
2022/12/11 05:37:37;;;;;;;25.92;15.38;;;;;;;-3.61;88.79;100537.00;7392146;19;20022;-69
2022/12/11 05:40:07;;;;;;;22.27;15.40;;;;;;;-3.58;89.42;100538.78;7393941;19;20018;-68
2022/12/11 05:42:36;;;;;;;25.73;17.30;;;;;;;-3.56;87.90;100534.59;7393498;19;20010;-68
2022/12/11 05:45:06;;;;;;;27.45;17.13;;;;;;;-3.56;89.43;100532.03;7393251;19;20541;-70
2022/12/11 05:47:35;;;;;;;26.73;16.67;;;;;;;-3.53;89.64;100536.38;7391591;19;20036;-68
2022/12/11 05:50:03;;;;;;;24.10;15.95;;;;;;;-3.52;88.77;100531.28;7391666;19;20029;-69
2022/12/11 05:52:35;;;;;;;25.42;16.15;;;;;;;-3.52;88.65;100526.16;7393154;19;20501;-69
2022/12/11 05:55:04;;;;;;;23.50;16.10;;;;;;;-3.53;88.12;100523.56;7399812;19;20035;-68
2022/12/11 05:57:32;;;;;;;23.15;14.85;;;;;;;-3.52;89.00;100515.91;7398120;19;20027;-66
2022/12/11 06:00:01;;;;;;;25.58;15.90;;;;;;;-3.50;89.89;100518.50;7400680;19;20015;-67
2022/12/11 06:02:29;;;;;;;25.38;15.07;;;;;;;-3.49;89.66;100518.56;7400803;19;20035;-67
2022/12/11 06:04:58;;;;;;;22.63;15.07;;;;;;;-3.48;89.29;100514.31;7400101;19;20380;-67
2022/12/11 06:07:26;;;;;;;22.02;14.90;;;;;;;-3.48;89.96;100509.19;7397823;19;20427;-67
2022/12/11 06:09:57;;;;;;;22.45;14.70;;;;;;;-3.46;89.60;100505.84;7397892;19;20031;-67
2022/12/11 06:12:27;;;;;;;29.40;16.75;;;;;;;-3.47;88.25;100503.22;7398024;19;20018;-67
2022/12/11 06:14:55;;;;;;;24.67;15.05;;;;;;;-3.49;88.98;100504.88;7399283;19;20522;-66
2022/12/11 06:17:24;;;;;;;27.17;17.27;;;;;;;-3.49;89.01;100502.28;7397619;19;20019;-67
2022/12/11 06:19:52;;;;;;;23.95;16.15;;;;;;;-3.50;88.85;100505.69;7399496;19;20428;-66
2022/12/11 06:22:21;;;;;;;24.63;15.52;;;;;;;-3.49;88.98;100504.88;7399867;19;20035;-67
2022/12/11 06:24:49;;;;;;;23.80;14.82;;;;;;;-3.51;88.62;100504.81;7400172;19;20031;-68
2022/12/11 06:27:20;;;;;;;23.27;14.88;;;;;;;-3.53;89.10;100511.59;7397646;19;20382;-68
2022/12/11 06:29:49;;;;;;;27.52;16.00;;;;;;;-3.52;89.74;100505.63;7400693;19;20015;-68
2022/12/11 06:32:18;;;;;;;21.33;14.38;;;;;;;-3.54;88.50;100517.53;7400139;19;20022;-69
2022/12/11 06:34:46;;;;;;;22.48;14.80;;;;;;;-3.54;88.99;100506.41;7399944;19;20014;-68
2022/12/11 06:37:15;;;;;;;22.23;14.93;;;;;;;-3.56;89.56;100516.63;7398126;19;20428;-68
2022/12/11 06:39:43;;;;;;;23.45;14.40;;;;;;;-3.55;89.76;100507.22;7399474;19;20568;-68
2022/12/11 06:42:12;;;;;;;22.45;14.48;;;;;;;-3.54;89.48;100506.41;7400740;19;20081;-69
2022/12/11 06:44:43;;;;;;;30.08;20.48;;;;;;;-3.55;89.41;100515.81;7399847;19;20014;-68
2022/12/11 06:47:11;;;;;;;25.30;17.40;;;;;;;-3.54;90.41;100516.66;7397285;19;20032;-69
2022/12/11 06:49:40;;;;;;;24.88;16.10;;;;;;;-3.55;89.51;100520.94;7398042;19;20028;-67
2022/12/11 06:52:08;;;;;;;27.60;16.52;;;;;;;-3.54;90.70;100524.38;7397337;19;20022;-67
2022/12/11 06:54:37;;;;;;;25.92;15.52;;;;;;;-3.52;90.72;100521.03;7397258;19;20022;-67
2022/12/11 06:57:05;;;;;;;23.67;15.43;;;;;;;-3.51;89.88;100524.47;7396968;19;20022;-67
2022/12/11 06:59:34;;;;;;;23.45;15.25;;;;;;;-3.53;89.55;100518.41;7399007;19;20493;-68
2022/12/11 07:02:06;;;;;;;25.00;15.07;;;;;;;-3.53;90.84;100511.59;7398926;19;20070;-67
2022/12/11 07:04:34;;;;;;;27.70;16.60;;;;;;;-3.52;91.31;100515.91;7398748;19;20019;-67
2022/12/11 07:07:03;;;;;;;25.98;15.43;;;;;;;-3.51;89.85;100512.50;7397062;19;20480;-68
2022/12/11 07:09:31;;;;;;;26.38;15.30;;;;;;;-3.52;88.82;100512.47;7399067;19;20035;-68
2022/12/11 07:11:59;;;;;;;28.83;15.68;;;;;;;-3.52;89.36;100515.03;7399021;19;20022;-68
2022/12/11 07:14:28;;;;;;;24.15;14.70;;;;;;;-3.53;90.20;100505.59;7398888;19;20022;-70
2022/12/11 07:16:56;;;;;;;28.58;15.80;;;;;;;-3.53;90.16;100513.28;7396699;19;20078;-68
2022/12/11 07:19:28;;;;;;;26.48;16.08;;;;;;;-3.53;89.55;100519.28;7398116;19;20515;-69
2022/12/11 07:21:56;;;;;;;26.75;15.35;;;;;;;-3.53;90.03;100516.72;7396636;19;20082;-69
2022/12/11 07:24:25;;;;;;;26.30;15.45;;;;;;;-3.51;89.29;100532.19;7399029;19;20477;-69
2022/12/11 07:26:54;;;;;;;25.65;16.73;;;;;;;-3.52;89.88;100533.84;7397130;19;20018;-68
2022/12/11 07:29:22;;;;;;;25.13;16.83;;;;;;;-3.53;89.18;100534.66;7398262;19;20022;-68
2022/12/11 07:31:51;;;;;;;24.13;14.80;;;;;;;-3.55;88.44;100538.00;7398387;19;20023;-68
2022/12/11 07:34:19;;;;;;;22.65;15.02;;;;;;;-3.57;88.68;100529.41;7396238;19;20082;-68
2022/12/11 07:36:50;;;;;;;21.88;15.13;;;;;;;-3.57;88.96;100534.53;7396368;19;20027;-67
2022/12/11 07:39:19;;;;;;;22.75;14.48;;;;;;;-3.56;89.46;100534.59;7397686;19;20035;-68
2022/12/11 07:41:48;;;;;;;22.55;14.40;;;;;;;-3.58;87.27;100535.34;7397819;19;20018;-68
2022/12/11 07:44:16;;;;;;;25.40;14.95;;;;;;;-3.56;88.35;100529.44;7397873;19;20015;-67
2022/12/11 07:46:45;;;;;;;24.63;14.55;;;;;;;-3.57;87.74;100532.84;7396486;19;20022;-67
2022/12/11 07:49:13;;;;;;;23.50;14.70;;;;;;;-3.56;87.90;100529.44;7396357;19;20485;-67
2022/12/11 07:51:43;;;;;;;26.55;15.63;;;;;;;-3.56;88.21;100532.03;7397796;19;20018;-68
2022/12/11 07:54:16;;;;;;;27.40;15.43;;;;;;;-3.54;88.62;100529.50;7396994;19;20481;-67
2022/12/11 07:56:45;;;;;;;23.77;14.82;;;;;;;-3.53;88.69;100529.53;7395140;19;20084;-67
2022/12/11 07:59:13;;;;;;;25.35;15.13;;;;;;;-3.54;87.88;100532.06;7397650;19;20022;-68
2022/12/11 08:01:42;;;;;;;22.23;13.35;;;;;;;-3.56;86.56;100541.38;7394976;19;20018;-68
2022/12/11 08:04:14;;;;;;;25.05;14.57;;;;;;;-3.57;87.64;100537.09;7395016;19;20501;-68
2022/12/11 08:06:44;;;;;;;26.67;15.70;;;;;;;-3.55;88.63;100538.91;7395939;19;20022;-68
2022/12/11 08:09:16;;;;;;;25.23;15.13;;;;;;;-3.55;87.04;100544.03;7396986;19;20074;-68
2022/12/11 08:11:44;;;;;;;27.27;15.02;;;;;;;-3.54;86.24;100544.88;7396699;19;20093;-67
2022/12/11 08:14:13;;;;;;;23.70;14.00;;;;;;;-3.51;88.43;100538.16;7397000;19;20031;-68
2022/12/11 08:16:42;;;;;;;24.10;14.98;;;;;;;-3.49;87.65;100545.91;7393211;19;20023;-68
2022/12/11 08:19:11;;;;;;;27.05;16.05;;;;;;;-3.46;86.97;100540.88;7394343;19;20037;-68
2022/12/11 08:21:40;;;;;;;22.90;13.88;;;;;;;-3.42;88.60;100531.56;7395971;19;20036;-68
2022/12/11 08:24:09;;;;;;;20.73;12.77;;;;;;;-3.41;86.95;100543.56;7394890;19;20462;-69
2022/12/11 08:26:41;;;;;;;21.23;14.30;;;;;;;-3.38;88.61;100538.56;7395342;19;20024;-67
2022/12/11 08:29:09;;;;;;;21.33;13.27;;;;;;;-3.38;85.79;100538.56;7396709;19;20086;-67
2022/12/11 08:31:38;;;;;;;23.10;13.93;;;;;;;-3.37;88.00;100536.03;7394244;19;20018;-68
2022/12/11 08:34:06;;;;;;;22.20;14.13;;;;;;;-3.36;88.19;100536.91;7395719;19;20433;-68
2022/12/11 08:36:35;;;;;;;24.60;14.10;;;;;;;-3.34;88.19;100541.25;7394839;19;20082;-68
2022/12/11 08:39:03;;;;;;;23.20;14.20;;;;;;;-3.33;87.02;100537.88;7395642;19;20477;-68
2022/12/11 08:41:32;;;;;;;27.77;15.02;;;;;;;-3.33;88.24;100530.16;7395941;19;20018;-68
2022/12/11 08:44:03;;;;;;;24.52;13.88;;;;;;;-3.29;88.08;100526.88;7395929;19;20094;-68
2022/12/11 08:46:34;;;;;;;23.08;14.30;;;;;;;-3.30;86.05;100527.72;7394959;19;20035;-67
2022/12/11 08:49:02;;;;;;;25.83;14.68;;;;;;;-3.33;86.97;100516.47;7395379;19;20006;-67
2022/12/11 08:51:38;;;;;;;24.95;14.60;;;;;;;-3.29;88.08;100524.31;7393110;19;20010;-66
2022/12/11 08:54:06;;;;;;;24.25;14.70;;;;;;;-3.25;88.37;100532.97;7395246;19;20037;-67
2022/12/11 08:56:35;;;;;;;27.15;15.50;;;;;;;-3.23;87.76;100539.03;7394392;19;20022;-66
2022/12/11 08:59:06;;;;;;;27.15;16.58;;;;;;;-3.26;85.26;100531.25;7395124;19;20589;-67
2022/12/11 09:01:34;;;;;;;28.10;16.17;;;;;;;-3.26;87.19;100538.94;7393442;19;20011;-67
2022/12/11 09:04:03;;;;;;;26.00;14.88;;;;;;;-3.25;86.32;100537.25;7393070;19;20014;-67
2022/12/11 09:06:34;;;;;;;26.95;16.60;;;;;;;-3.23;86.78;100540.75;7393581;19;20096;-67
2022/12/11 09:09:03;;;;;;;24.95;14.90;;;;;;;-3.25;86.83;100540.66;7395087;19;20031;-68
2022/12/11 09:11:34;;;;;;;28.77;15.48;;;;;;;-3.24;87.59;100544.97;7394633;19;20023;-68
2022/12/11 09:14:06;;;;;;;26.05;16.08;;;;;;;-3.21;88.20;100541.63;7394649;19;20015;-67
2022/12/11 09:16:36;;;;;;;25.35;15.80;;;;;;;-3.20;86.36;100538.25;7393394;19;20018;-67
2022/12/11 09:19:08;;;;;;;24.27;15.32;;;;;;;-3.19;85.90;100537.44;7392751;19;20019;-68
2022/12/11 09:21:36;;;;;;;31.17;16.63;;;;;;;-3.20;86.48;100535.69;7392533;19;20028;-68
2022/12/11 09:24:05;;;;;;;30.70;15.57;;;;;;;-3.25;83.71;100525.28;7392753;19;20015;-67
2022/12/11 09:26:34;;;;;;;24.52;15.77;;;;;;;-3.23;85.28;100530.47;7392931;19;20022;-68
2022/12/11 09:29:07;;;;;;;25.77;14.82;;;;;;;-3.23;85.55;100528.78;7401305;19;20068;-68
2022/12/11 09:31:37;;;;;;;23.98;14.93;;;;;;;-3.22;85.37;100527.94;7399317;19;20014;-69
2022/12/11 09:34:08;;;;;;;27.02;15.10;;;;;;;-3.24;84.48;100521.03;7402009;19;20027;-68
2022/12/11 09:36:37;;;;;;;28.90;16.20;;;;;;;-3.21;85.47;100521.13;7400579;19;20039;-70
2022/12/11 09:39:08;;;;;;;30.10;15.85;;;;;;;-3.20;85.59;100521.16;7401777;19;20552;-70
2022/12/11 09:41:51;;;;;;;26.10;15.30;;;;;;;-3.18;86.58;100522.09;7402814;19;20098;-68
2022/12/11 09:44:34;;;;;;;28.75;16.23;;;;;;;-3.15;85.39;100521.31;7402200;19;20022;-69
2022/12/11 09:47:03;;;;;;;26.27;14.65;;;;;;;-3.12;85.65;100519.72;7399483;19;20039;-69
2022/12/11 09:49:39;;;;;;;27.00;15.18;;;;;;;-3.12;85.99;100517.13;7400849;19;20494;-69
2022/12/11 09:52:14;;;;;;;26.95;15.27;;;;;;;-3.09;86.10;100515.50;7398127;19;20014;-68
2022/12/11 09:54:49;;;;;;;26.67;15.00;;;;;;;-3.09;85.64;100520.63;7401309;19;20078;-68
2022/12/11 09:57:50;;;;;;;22.70;14.43;;;;;;;-3.09;84.54;100520.63;7398772;19;20010;-69
2022/12/11 10:00:29;;;;;;;30.40;15.02;;;;;;;-3.14;85.15;100518.78;7401775;19;20039;-69
2022/12/11 10:03:23;;;;;;;26.92;14.73;;;;;;;-3.15;85.42;100509.31;7398454;19;20418;-68
2022/12/11 10:05:59;;;;;;;25.27;15.75;;;;;;;-3.18;84.94;100510.97;7400022;19;20031;-69
2022/12/11 10:08:34;;;;;;;27.35;15.43;;;;;;;-3.19;85.36;100509.22;7401594;19;20074;-69
2022/12/11 10:11:16;;;;;;;26.77;16.20;;;;;;;-3.19;85.93;100519.47;7401349;19;20040;-69
2022/12/11 10:13:55;;;;;;;27.67;16.27;;;;;;;-3.20;86.80;100508.31;7401227;19;20027;-69
2022/12/11 10:16:37;;;;;;;29.30;16.60;;;;;;;-3.18;87.18;100514.38;7398978;19;20023;-68
2022/12/11 10:19:06;;;;;;;26.88;16.13;;;;;;;-3.16;87.54;100512.75;7398364;19;20019;-67
2022/12/11 10:21:41;;;;;;;28.50;16.92;;;;;;;-3.17;87.65;100513.56;7400234;19;20019;-68
2022/12/11 10:24:17;;;;;;;27.48;15.68;;;;;;;-3.16;88.16;100519.56;7401048;19;20023;-68
2022/12/11 10:26:48;;;;;;;27.67;17.83;;;;;;;-3.16;88.52;100511.84;7398887;19;20082;-68
2022/12/11 10:29:17;;;;;;;29.63;17.48;;;;;;;-3.14;88.88;100507.66;7400614;19;20078;-68
2022/12/11 10:31:54;;;;;;;30.00;17.33;;;;;;;-3.13;88.64;100506.84;7399929;19;20025;-68
2022/12/11 10:34:31;;;;;;;31.17;17.73;;;;;;;-3.13;88.19;100496.56;7399927;19;20410;-69
2022/12/11 10:37:00;;;;;;;31.95;18.05;;;;;;;-3.13;88.67;100505.13;7397373;19;20014;-68
2022/12/11 10:39:28;;;;;;;32.67;18.40;;;;;;;-3.13;88.38;100504.25;7397964;19;20032;-69
2022/12/11 10:41:58;;;;;;;28.77;16.15;;;;;;;-3.10;88.78;100509.47;7399525;19;20078;-68
2022/12/11 10:44:28;;;;;;;31.98;17.92;;;;;;;-3.11;88.34;100495.78;7399564;19;20071;-68
2022/12/11 10:47:08;;;;;;;32.75;17.42;;;;;;;-3.08;88.30;100491.56;7396570;19;20033;-68
2022/12/11 10:49:38;;;;;;;30.40;17.95;;;;;;;-3.08;88.19;100491.56;7400046;19;20031;-68
2022/12/11 10:52:19;;;;;;;29.42;18.60;;;;;;;-3.05;88.52;100491.66;7397595;19;20031;-68
2022/12/11 10:54:49;;;;;;;31.92;18.02;;;;;;;-3.06;87.98;100484.78;7396488;19;20537;-67
2022/12/11 10:57:27;;;;;;;26.90;17.25;;;;;;;-3.04;88.34;100485.69;7396852;19;20025;-68
2022/12/11 10:59:57;;;;;;;31.83;17.30;;;;;;;-3.01;89.21;100483.22;7397508;19;20035;-68
2022/12/11 11:02:30;;;;;;;31.17;18.30;;;;;;;-2.99;88.78;100486.72;7399436;19;20022;-69
2022/12/11 11:05:01;;;;;;;29.97;17.13;;;;;;;-2.99;87.94;100484.13;7398823;19;20417;-69
2022/12/11 11:07:31;;;;;;;29.40;16.08;;;;;;;-2.99;87.16;100484.13;7396728;19;20541;-69
2022/12/11 11:10:15;;;;;;;27.42;15.57;;;;;;;-2.99;86.90;100481.56;7399618;19;20023;-68
2022/12/11 11:12:46;;;;;;;22.50;13.05;;;;;;;-3.01;85.69;100473.84;7398820;19;20488;-69
2022/12/11 11:15:17;;;;;;;27.25;15.13;;;;;;;-3.03;86.72;100474.59;7399059;19;20018;-68
2022/12/11 11:17:50;;;;;;;35.50;18.55;;;;;;;-3.05;87.33;100481.38;7396979;19;20086;-68
2022/12/11 11:20:21;;;;;;;26.80;15.15;;;;;;;-3.04;87.17;100478.88;7396877;19;20087;-67
2022/12/11 11:22:54;;;;;;;25.63;15.45;;;;;;;-3.08;85.12;100471.00;7398545;19;20018;-68
2022/12/11 11:25:25;;;;;;;28.63;14.85;;;;;;;-3.08;86.71;100471.91;7397369;19;20018;-68
2022/12/11 11:27:56;;;;;;;23.10;13.75;;;;;;;-3.10;86.46;100465.84;7398268;19;20026;-68
2022/12/11 11:30:27;;;;;;;29.13;16.30;;;;;;;-3.13;86.19;100468.34;7398382;19;20023;-69
2022/12/11 11:33:02;;;;;;;27.48;15.38;;;;;;;-3.12;87.94;100464.94;7398518;19;20018;-67
2022/12/11 11:35:32;;;;;;;26.25;15.15;;;;;;;-3.12;87.07;100460.69;7398090;19;20020;-68
2022/12/11 11:38:07;;;;;;;25.88;14.48;;;;;;;-3.12;85.85;100455.53;7396196;19;20035;-69